Terminal Aerodrome Forecast
Issued by NWS

Home | Current Version | Previous Version | Text Only | Print | Product List | Glossary On
Versions: 1 2 3 4 5 6 7 8 9 10 11 12 13 14 15 16 17 18 19 20 21 22 23 24 25 26 27 28
000
FTUS42 KJAX 211252 AAA
TAFCRG
TAF AMD
KCRG 211252Z 2113/2212 30008KT P6SM SCT020 BKN150 BKN200
      TEMPO 2113/2114 BKN010
     FM211400 34008KT P6SM SCT020 BKN150 BKN200
     FM212000 05007KT P6SM SCT250
     FM220000 10003KT P6SM SKC=

USA.gov is the U.S. government's official web portal to all federal, state and local government web resources and services.